Flight Track Log - Related Links

Times and Time Zones

All times are in EDT time to prevent confusion due to time zone crossing. See the SWA3765 flight status page for this flight to view local times or setup timezone preferences in your user account.


Time Position Orientation Groundspeed Altitude Reporting Facility
EDT Latitude Longitude Course Direction KTS MPH feet Rate Location/Type
Wed 10:10:52 AM 33.9500 -118.5000 321° Northwest 209 241 4,800  Level Southern California TRACON
Wed 10:11:46 AM 33.9667 -118.5508 292° West 241 277 7,800 3,861 Climbing Los Angeles Center
Wed 10:12:47 AM 34.0394 -118.5692 348° North 266 306 12,200 3,951 Climbing Los Angeles Center
Wed 10:13:49 AM 34.1169 -118.5906 347° North 297 342 15,900 3,435 Climbing Los Angeles Center
Wed 10:14:51 AM 34.2028 -118.6117 349° North 308 354 19,300 3,871 Climbing Los Angeles Center
Wed 10:15:53 AM 34.3175 -118.6203 356° North 340 391 23,900 3,415 Climbing Los Angeles Center
Wed 10:16:00 AM 34.4517 -118.7287 321° Northwest  Level Estimated
Wed 10:16:54 AM 34.4072 -118.6633 338° Northwest 345 397 26,300  Level Los Angeles Center
Wed 10:17:56 AM 34.5017 -118.7117 337° Northwest 362 417 28,500 2,419 Climbing Los Angeles Center
Wed 10:18:58 AM 34.5997 -118.7606 338° Northwest 379 436 31,300 2,613 Climbing Los Angeles Center
Wed 10:20:00 AM 34.6936 -118.8086 337° Northwest 367 422 33,900 2,081 Climbing Los Angeles Center
Wed 10:21:02 AM 34.7883 -118.8553 338° Northwest 368 423 35,600 1,024 Climbing Los Angeles Center
Wed 10:22:03 AM 34.8978 -118.9039 340° North 375 432 36,000 195 Climbing Los Angeles Center
Wed 10:23:05 AM 34.9933 -118.9472 340° North 369 425 36,000  Level Los Angeles Center
Wed 10:24:07 AM 35.0917 -118.9906 340° North 374 430 36,000  Level Los Angeles Center
Wed 10:25:09 AM 35.1903 -119.0353 340° North 380 437 36,000  Level Los Angeles Center
Wed 10:26:11 AM 35.3089 -119.0875 340° North 379 436 36,000  Level Los Angeles Center
Wed 10:27:13 AM 35.4075 -119.1322 340° North 378 435 36,000  Level Los Angeles Center
Wed 10:28:15 AM 35.5056 -119.1767 340° North 378 435 36,000  Level Los Angeles Center
Wed 10:29:17 AM 35.6031 -119.2214 340° North 376 433 36,000  Level Los Angeles Center
Wed 10:30:18 AM 35.7019 -119.2667 340° North 379 436 36,000  Level Los Angeles Center
Wed 10:31:20 AM 35.8006 -119.3117 340° North 379 436 36,000  Level Los Angeles Center
Wed 10:32:22 AM 35.9178 -119.3667 339° North 377 434 36,000  Level Los Angeles Center
Wed 10:33:24 AM 36.0158 -119.4114 340° North 377 434 36,000 -48 Level Los Angeles Center
Wed 10:34:26 AM 36.1136 -119.4569 339° North 377 434 35,900  Descending Los Angeles Center
Wed 10:35:28 AM 36.2108 -119.5025 339° North 376 433 36,000 49 Climbing Los Angeles Center
Wed 10:36:29 AM 36.3064 -119.5533 337° Northwest 375 432 36,000  Level Los Angeles Center
Wed 10:37:31 AM 36.3981 -119.6181 330° Northwest 378 435 36,000  Level Los Angeles Center
Wed 10:38:57 AM 36.5439 -119.7189 331° Northwest 380 437 36,000  Level Oakland Center
Wed 10:39:58 AM 36.6353 -119.7836 330° Northwest 379 436 36,000  Level Oakland Center
Wed 10:40:59 AM 36.7281 -119.8503 330° Northwest 384 442 36,000  Level Oakland Center
Wed 10:42:01 AM 36.8200 -119.9161 330° Northwest 383 441 36,000  Level Oakland Center
Wed 10:43:02 AM 36.9125 -119.9811 331° Northwest 382 440 36,000 -836 Level Oakland Center
Wed 10:44:03 AM 37.0036 -120.0494 329° Northwest 383 441 34,300 -2,066 Descending Oakland Center
Wed 10:45:04 AM 37.1058 -120.1228 330° Northwest 375 432 31,800 -2,244 Descending Oakland Center
Wed 10:46:06 AM 37.1922 -120.1839 331° Northwest 362 417 29,700 -2,049 Descending Oakland Center
Wed 10:47:07 AM 37.2750 -120.2439 330° Northwest 350 403 27,600 -2,016 Descending Oakland Center
Wed 10:48:08 AM 37.3575 -120.3044 330° Northwest 344 396 25,600 -1,967 Descending Oakland Center
Wed 10:49:09 AM 37.4364 -120.3614 330° Northwest 332 382 23,600 -1,651 Descending Oakland Center
Wed 10:49:57 AM 37.5000 -120.4167 325° Northwest 326 375 22,600 -1,056 Descending Northern Cal TRACON
Wed 10:50:57 AM 37.5667 -120.4833 322° Northwest 332 382 21,700 -950 Descending Northern Cal TRACON
Wed 10:51:57 AM 37.6500 -120.5667 322° Northwest 338 389 20,700 -1,000 Descending Northern Cal TRACON
Wed 10:52:57 AM 37.7167 -120.6333 322° Northwest 329 379 19,700 -1,000 Descending Northern Cal TRACON
Wed 10:53:57 AM 37.7833 -120.7167 315° West 327 376 18,700 -1,000 Descending Northern Cal TRACON
Wed 10:54:51 AM 37.8500 -120.7833 322° Northwest 337 388 17,800 -842 Descending Northern Cal TRACON
Wed 10:55:51 AM 37.9167 -120.8500 322° Northwest 334 384 17,100 -850 Descending Northern Cal TRACON
Wed 10:56:51 AM 38.0000 -120.9167 328° Northwest 328 377 16,100 -850 Descending Northern Cal TRACON
Wed 10:57:51 AM 38.0667 -120.9833 322° Northwest 313 360 15,400 -800 Descending Northern Cal TRACON
Wed 10:58:21 AM 38.0900 -121.0256 305° West 311 358 14,900 -1,055 Descending Oakland Center
Wed 10:59:22 AM 38.1453 -121.1092 310° West 309 356 13,800 -1,463 Descending Oakland Center
Wed 11:00:24 AM 38.1994 -121.1900 310° West 301 346 11,900 -1,659 Descending Oakland Center
Wed 11:01:25 AM 38.2531 -121.2689 311° West 295 339 10,400 -1,426 Descending Oakland Center
Wed 11:02:26 AM 38.3022 -121.3408 311° West 271 312 9,000 -1,805 Descending Oakland Center
Wed 11:03:28 AM 38.3497 -121.4122 310° West 263 303 6,700 -2,000 Descending Oakland Center
Wed 11:04:29 AM 38.3994 -121.4839 312° West 266 306 4,900 -1,700 Descending Oakland Center
Wed 11:05:28 AM 38.4667 -121.5333 330° Northwest 256 295 3,300 -958 Descending Northern Cal TRACON
Wed 11:06:28 AM 38.5167 -121.5833 322° Northwest 213 245 3,000 -400 Descending Northern Cal TRACON
Wed 11:07:28 AM 38.5667 -121.5833 360° North 173 199 2,500 -750 Descending Northern Cal TRACON
Wed 11:08:28 AM 38.6167 -121.6000 345° North 160 184 1,500 -800 Descending Northern Cal TRACON
Wed 11:09:28 AM 38.6500 -121.6000 360° North 119 137 900 -632 Descending Northern Cal TRACON
Wed 11:10:22 AM 38.6833 -121.6000 360° North 126 145 300 -667 Descending Northern Cal TRACON
Wed 11:12:00 AM 38.6833 -121.5833 46° Northeast  Level FlightAware Approximate

Login

Don't have an account? Register now (free) for customized features, flight alerts, and more!